createdAt,value
2022-10-05T00:00:46.644Z,102018.22
2022-10-05T00:03:14.541Z,102020.94
2022-10-05T00:05:42.506Z,102016.34
2022-10-05T00:08:32.562Z,102020.31
2022-10-05T00:11:01.117Z,102018.63
2022-10-05T00:13:38.811Z,102023.38
2022-10-05T00:16:22.646Z,102024.63
2022-10-05T00:19:00.158Z,102022.13
2022-10-05T00:21:35.319Z,102024.84
2022-10-05T00:24:14.098Z,102031.25
2022-10-05T00:26:46.935Z,102028.94
2022-10-05T00:29:25.971Z,102027.53
2022-10-05T00:32:04.436Z,102028.31
2022-10-05T00:34:55.618Z,102021.44
2022-10-05T00:37:24.590Z,102032.59
2022-10-05T00:39:52.601Z,102033.84
2022-10-05T00:43:04.073Z,102030.97
2022-10-05T00:45:48.698Z,102038.84
2022-10-05T00:48:26.720Z,102033.25
2022-10-05T00:51:12.449Z,102035.09
2022-10-05T00:54:18.545Z,102035.09
2022-10-05T00:56:57.281Z,102030.97
2022-10-05T00:59:27.782Z,102038.94
2022-10-05T01:02:22.927Z,102037.72
2022-10-05T01:05:11.663Z,102034.41
2022-10-05T01:07:48.706Z,102038.97
2022-10-05T01:10:48.294Z,102043.03
2022-10-05T01:13:21.571Z,102049.06
2022-10-05T01:16:11.029Z,102051.34
2022-10-05T01:18:47.998Z,102040.56
2022-10-05T01:21:21.020Z,102040.34
2022-10-05T01:24:40.662Z,102034.34
2022-10-05T01:27:11.428Z,102036.00
2022-10-05T01:30:09.317Z,102035.81
2022-10-05T01:32:42.303Z,102035.19
2022-10-05T01:35:25.515Z,102037.06
2022-10-05T01:37:56.145Z,102034.13
2022-10-05T01:40:42.342Z,102032.47
2022-10-05T01:43:30.410Z,102032.88
2022-10-05T01:46:31.756Z,102031.41
2022-10-05T01:49:16.721Z,102023.03
2022-10-05T01:52:25.297Z,102020.16
2022-10-05T01:55:20.513Z,102016.41
2022-10-05T01:58:07.340Z,102014.72
2022-10-05T02:01:01.998Z,102014.72
2022-10-05T02:03:50.314Z,102010.50
2022-10-05T02:06:25.400Z,102001.41
2022-10-05T02:09:18.900Z,102000.22
2022-10-05T02:11:58.168Z,102004.13
2022-10-05T02:14:33.479Z,101997.94
2022-10-05T02:17:08.968Z,101993.38
2022-10-05T02:19:40.405Z,101989.72
2022-10-05T02:22:22.619Z,101996.44
2022-10-05T02:25:04.176Z,101986.44
2022-10-05T02:27:35.660Z,101981.03
2022-10-05T02:30:07.051Z,101985.38
2022-10-05T02:32:47.917Z,101985.63
2022-10-05T02:35:19.815Z,101982.13
2022-10-05T02:38:24.238Z,101988.81
2022-10-05T02:41:53.929Z,101988.41
2022-10-05T02:44:53.158Z,101986.09
2022-10-05T02:48:25.901Z,101978.19
2022-10-05T02:51:03.620Z,101988.38
2022-10-05T02:54:01.104Z,101983.97
2022-10-05T02:56:42.192Z,101996.84
2022-10-05T02:59:18.817Z,101991.81
2022-10-05T03:02:00.169Z,101984.53
2022-10-05T03:04:55.166Z,101990.84
2022-10-05T03:07:58.673Z,101992.09
2022-10-05T03:10:37.880Z,101991.31
2022-10-05T03:13:14.348Z,101989.47
2022-10-05T03:16:07.194Z,101987.78
2022-10-05T03:18:41.541Z,101980.34
2022-10-05T03:21:27.143Z,101982.63
2022-10-05T03:24:24.505Z,101980.13
2022-10-05T03:27:01.759Z,101983.06
2022-10-05T03:29:45.352Z,101987.63
2022-10-05T03:32:23.765Z,101973.44
2022-10-05T03:35:01.180Z,101971.66
2022-10-05T03:37:32.691Z,101974.72
2022-10-05T03:40:56.333Z,101972.56
2022-10-05T03:43:55.888Z,101982.06
2022-10-05T03:46:53.356Z,101992.63
2022-10-05T03:49:47.352Z,101985.56
2022-10-05T03:52:23.414Z,101994.91
2022-10-05T03:54:58.111Z,101990.19
2022-10-05T03:57:30.685Z,101988.25
2022-10-05T04:00:06.810Z,101993.06
2022-10-05T04:03:31.022Z,101989.72
2022-10-05T04:06:07.640Z,101997.66
2022-10-05T04:08:48.343Z,102003.38
2022-10-05T04:11:47.727Z,102004.84
2022-10-05T04:14:30.177Z,102005.75
2022-10-05T04:17:37.033Z,102000.16
2022-10-05T04:20:28.642Z,101994.16
2022-10-05T04:23:24.449Z,101993.50
2022-10-05T04:26:02.862Z,101997.41
2022-10-05T04:28:57.888Z,101998.81
2022-10-05T04:32:02.228Z,101995.63
2022-10-05T04:34:49.155Z,101992.84
2022-10-05T04:37:28.413Z,101993.88
2022-10-05T04:40:20.581Z,101994.13
2022-10-05T04:43:07.104Z,101992.06
2022-10-05T04:46:09.361Z,101990.56
2022-10-05T04:49:04.271Z,101988.44
2022-10-05T04:51:55.292Z,101992.59
2022-10-05T04:54:51.192Z,101997.97
2022-10-05T04:57:42.113Z,102003.13
2022-10-05T05:00:32.157Z,102005.59
2022-10-05T05:03:34.201Z,102010.56
2022-10-05T05:06:33.316Z,102018.13
2022-10-05T05:09:19.079Z,102019.81
2022-10-05T05:12:04.223Z,102023.94
2022-10-05T05:14:39.832Z,102029.84
2022-10-05T05:17:38.700Z,102023.34
2022-10-05T05:20:12.320Z,102019.59
2022-10-05T05:22:52.124Z,102015.56
2022-10-05T05:26:04.839Z,102005.53
2022-10-05T05:28:44.794Z,102011.84
2022-10-05T05:31:29.770Z,102016.69
2022-10-05T05:34:05.645Z,102026.03
2022-10-05T05:36:51.847Z,102025.84
2022-10-05T05:39:54.439Z,102028.41
2022-10-05T05:42:52.023Z,102033.13
2022-10-05T05:45:52.454Z,102033.59
2022-10-05T05:48:42.885Z,102043.88
2022-10-05T05:51:44.005Z,102046.97
2022-10-05T05:54:34.004Z,102055.22
2022-10-05T05:57:28.494Z,102055.28
2022-10-05T06:00:11.525Z,102054.44
2022-10-05T06:03:01.559Z,102067.06
2022-10-05T06:05:48.710Z,102061.50
2022-10-05T06:08:46.769Z,102065.28
2022-10-05T06:11:55.664Z,102066.72
2022-10-05T06:14:41.155Z,102048.25
2022-10-05T06:17:22.344Z,102049.53
2022-10-05T06:19:54.755Z,102063.66
2022-10-05T06:22:51.016Z,102066.66
2022-10-05T06:25:45.593Z,102066.03
2022-10-05T06:28:20.103Z,102061.09
2022-10-05T06:31:35.953Z,102064.72
2022-10-05T06:34:15.241Z,102073.28
2022-10-05T06:36:51.621Z,102067.97
2022-10-05T06:39:20.105Z,102072.78
2022-10-05T06:41:54.608Z,102078.72
2022-10-05T06:45:16.850Z,102091.03
2022-10-05T06:48:42.409Z,102099.44
2022-10-05T06:51:51.668Z,102097.69
2022-10-05T06:54:44.096Z,102102.00
2022-10-05T06:57:20.744Z,102096.72
2022-10-05T07:00:16.754Z,102101.72
2022-10-05T07:03:00.494Z,102100.25
2022-10-05T07:05:57.646Z,102105.88
2022-10-05T07:08:25.520Z,102096.78
2022-10-05T07:11:03.982Z,102095.22
2022-10-05T07:14:01.798Z,102105.00
2022-10-05T07:16:53.546Z,102103.81
2022-10-05T07:19:26.725Z,102097.00
2022-10-05T07:22:21.186Z,102108.13
2022-10-05T07:25:04.564Z,102109.22
2022-10-05T07:27:39.655Z,102107.38
2022-10-05T07:30:14.979Z,102107.41
2022-10-05T07:32:56.529Z,102110.63
2022-10-05T07:36:15.029Z,102112.72
2022-10-05T07:38:51.930Z,102107.06
2022-10-05T07:41:38.185Z,102110.66
2022-10-05T07:44:31.344Z,102102.69
2022-10-05T07:47:14.174Z,102102.69
2022-10-05T07:50:03.796Z,102096.06
2022-10-05T07:52:57.625Z,102105.00
2022-10-05T07:56:10.338Z,102105.44
2022-10-05T07:58:48.149Z,102100.44
2022-10-05T08:01:23.760Z,102103.78
2022-10-05T08:04:08.533Z,102106.03
2022-10-05T08:06:54.632Z,102110.63
2022-10-05T08:09:40.603Z,102109.38
2022-10-05T08:12:41.884Z,102114.38
2022-10-05T08:15:17.233Z,102122.69
2022-10-05T08:18:06.281Z,102126.84
2022-10-05T08:20:50.615Z,102127.69
2022-10-05T08:23:38.959Z,102130.19
2022-10-05T08:26:23.125Z,102137.22
2022-10-05T08:29:30.432Z,102140.50
2022-10-05T08:33:00.097Z,102148.44
2022-10-05T08:35:36.567Z,102145.53
2022-10-05T08:38:16.654Z,102150.28
2022-10-05T08:41:03.722Z,102141.34
2022-10-05T08:44:03.976Z,102147.13
2022-10-05T08:46:53.489Z,102150.19
2022-10-05T08:49:57.087Z,102141.88
2022-10-05T08:52:30.493Z,102145.78
2022-10-05T08:55:22.622Z,102154.00
2022-10-05T08:57:50.020Z,102143.75
2022-10-05T09:00:25.071Z,102148.91
2022-10-05T09:03:23.943Z,102150.66
2022-10-05T09:06:20.627Z,102156.41
2022-10-05T09:09:19.045Z,102151.50
2022-10-05T09:12:08.461Z,102149.22
2022-10-05T09:15:25.530Z,102139.78
2022-10-05T09:18:23.230Z,102146.16
2022-10-05T09:20:59.372Z,102148.63
2022-10-05T09:23:40.688Z,102151.34
2022-10-05T09:26:29.659Z,102143.03
2022-10-05T09:29:39.395Z,102148.38
2022-10-05T09:32:25.957Z,102148.97
2022-10-05T09:35:15.647Z,102141.81
2022-10-05T09:38:11.121Z,102147.44
2022-10-05T09:40:47.985Z,102147.06
2022-10-05T09:43:47.318Z,102142.25
2022-10-05T09:46:36.349Z,102142.59
2022-10-05T09:49:29.074Z,102141.06
2022-10-05T09:52:44.804Z,102136.28
2022-10-05T09:55:34.576Z,102134.69
2022-10-05T09:58:34.050Z,102140.81
2022-10-05T10:01:40.679Z,102140.56
2022-10-05T10:04:47.210Z,102141.16
2022-10-05T10:07:58.882Z,102143.41
2022-10-05T10:10:44.261Z,102137.97
2022-10-05T10:13:36.807Z,102145.69
2022-10-05T10:16:35.466Z,102151.59
2022-10-05T10:19:24.876Z,102143.41
2022-10-05T10:22:20.664Z,102150.03
2022-10-05T10:25:04.048Z,102141.06
2022-10-05T10:28:06.038Z,102145.69
2022-10-05T10:30:52.212Z,102140.44
2022-10-05T10:33:40.712Z,102143.00
2022-10-05T10:36:27.268Z,102139.63
2022-10-05T10:39:00.559Z,102143.38
2022-10-05T10:41:58.632Z,102139.47
2022-10-05T10:44:52.030Z,102133.56
2022-10-05T10:47:39.151Z,102137.56
2022-10-05T10:50:33.718Z,102134.41
2022-10-05T10:53:05.815Z,102143.72
2022-10-05T10:55:49.477Z,102140.84
2022-10-05T10:58:54.779Z,102144.91
2022-10-05T11:01:35.180Z,102139.72
2022-10-05T11:04:24.882Z,102143.06
2022-10-05T11:07:29.439Z,102138.25
2022-10-05T11:10:16.709Z,102130.50
2022-10-05T11:13:08.643Z,102131.31
2022-10-05T11:16:18.753Z,102137.19
2022-10-05T11:19:20.722Z,102131.16
2022-10-05T11:21:56.319Z,102131.03
2022-10-05T11:24:55.032Z,102135.97
2022-10-05T11:27:47.613Z,102134.78
2022-10-05T11:30:15.618Z,102136.69
2022-10-05T11:33:11.762Z,102139.53
2022-10-05T11:35:51.205Z,102131.63
2022-10-05T11:38:58.421Z,102140.16
2022-10-05T11:41:54.036Z,102135.28
2022-10-05T11:44:52.131Z,102136.59
2022-10-05T11:47:31.977Z,102138.84
2022-10-05T11:50:43.973Z,102138.22
2022-10-05T11:53:32.663Z,102128.06
2022-10-05T11:56:00.411Z,102130.06
2022-10-05T11:59:17.361Z,102125.47
2022-10-05T12:02:06.921Z,102125.34
2022-10-05T12:04:59.886Z,102122.75
2022-10-05T12:07:39.621Z,102110.69
2022-10-05T12:10:44.514Z,102103.72
2022-10-05T12:13:36.104Z,102104.31
2022-10-05T12:16:33.263Z,102104.81
2022-10-05T12:19:14.568Z,102101.59
2022-10-05T12:21:51.819Z,102091.22
2022-10-05T12:24:38.738Z,102094.41
2022-10-05T12:27:34.469Z,102104.69
2022-10-05T12:30:13.913Z,102086.97
2022-10-05T12:33:04.612Z,102080.09
2022-10-05T12:35:58.072Z,102086.00
2022-10-05T12:38:53.193Z,102079.97
2022-10-05T12:41:51.363Z,102076.31
2022-10-05T12:44:37.879Z,102075.38
2022-10-05T12:47:30.308Z,102078.44
2022-10-05T12:50:18.568Z,102078.56
2022-10-05T12:53:11.519Z,102081.28
2022-10-05T12:55:53.937Z,102079.03
2022-10-05T12:58:36.401Z,102081.88
2022-10-05T13:01:09.808Z,102087.91
2022-10-05T13:03:52.473Z,102086.69
2022-10-05T13:06:51.653Z,102081.41
2022-10-05T13:09:37.096Z,102072.28
2022-10-05T13:12:36.513Z,102064.94
2022-10-05T13:15:23.825Z,102074.47
2022-10-05T13:18:14.473Z,102066.47
2022-10-05T13:21:16.784Z,102068.22
2022-10-05T13:24:07.835Z,102068.47
2022-10-05T13:26:50.810Z,102067.38
2022-10-05T13:29:47.491Z,102069.25
2022-10-05T13:32:24.837Z,102064.31
2022-10-05T13:35:12.628Z,102060.66
2022-10-05T13:38:17.246Z,102059.56
2022-10-05T13:41:27.126Z,102062.16
2022-10-05T13:44:34.057Z,102062.50
2022-10-05T13:47:30.303Z,102056.50
2022-10-05T13:50:17.491Z,102053.56
2022-10-05T13:52:56.650Z,102056.16
2022-10-05T13:55:33.012Z,102053.44
2022-10-05T13:58:44.490Z,102061.78
2022-10-05T14:01:42.860Z,102054.59
2022-10-05T14:04:19.974Z,102051.53
2022-10-05T14:06:56.811Z,102051.88
2022-10-05T14:09:37.440Z,102043.28
2022-10-05T14:12:05.263Z,102045.75
2022-10-05T14:14:51.647Z,102046.78
2022-10-05T14:17:39.890Z,102052.47
2022-10-05T14:20:36.728Z,102051.66
2022-10-05T14:23:18.563Z,102050.78
2022-10-05T14:25:55.332Z,102051.00
2022-10-05T14:28:26.624Z,102051.00
2022-10-05T14:31:02.979Z,102047.91
2022-10-05T14:33:36.923Z,102055.97
2022-10-05T14:36:12.888Z,102044.91
2022-10-05T14:39:01.255Z,102044.47
2022-10-05T14:41:30.318Z,102045.66
2022-10-05T14:44:07.080Z,102048.13
2022-10-05T14:47:06.588Z,102048.59
2022-10-05T14:49:50.822Z,102052.44
2022-10-05T14:52:32.917Z,102051.16
2022-10-05T14:55:37.881Z,102052.44
2022-10-05T14:58:32.645Z,102056.34
2022-10-05T15:01:11.600Z,102058.72
2022-10-05T15:03:58.076Z,102058.72
2022-10-05T15:06:58.420Z,102063.19
2022-10-05T15:09:34.449Z,102053.31
2022-10-05T15:12:03.707Z,102059.78
2022-10-05T15:14:34.543Z,102057.53
2022-10-05T15:17:07.247Z,102064.00
2022-10-05T15:19:45.175Z,102064.00
2022-10-05T15:23:17.441Z,102064.41
2022-10-05T15:26:27.177Z,102062.38
2022-10-05T15:29:05.278Z,102066.59
2022-10-05T15:31:42.255Z,102069.97
2022-10-05T15:34:33.186Z,102074.34
2022-10-05T15:37:12.696Z,102067.81
2022-10-05T15:40:00.664Z,102078.81
2022-10-05T15:42:44.282Z,102070.38
2022-10-05T15:45:19.506Z,102078.72
2022-10-05T15:47:52.603Z,102077.59
2022-10-05T15:50:28.501Z,102078.56
2022-10-05T15:53:16.437Z,102080.09
2022-10-05T15:56:00.817Z,102084.75
2022-10-05T15:58:43.391Z,102081.47
2022-10-05T16:01:23.446Z,102081.00
2022-10-05T16:04:00.563Z,102085.97
2022-10-05T16:07:01.653Z,102081.47
2022-10-05T16:09:36.681Z,102087.31
2022-10-05T16:12:23.489Z,102083.78
2022-10-05T16:15:07.045Z,102075.81
2022-10-05T16:17:59.680Z,102084.53
2022-10-05T16:20:39.458Z,102082.06
2022-10-05T16:23:24.373Z,102078.38
2022-10-05T16:26:33.129Z,102080.84
2022-10-05T16:29:11.986Z,102082.78
2022-10-05T16:31:55.259Z,102084.63
2022-10-05T16:34:45.351Z,102076.50
2022-10-05T16:37:38.078Z,102075.75
2022-10-05T16:40:27.182Z,102087.22
2022-10-05T16:43:19.401Z,102090.81
2022-10-05T16:46:14.170Z,102092.38
2022-10-05T16:49:16.894Z,102094.44
2022-10-05T16:52:00.136Z,102091.72
2022-10-05T16:55:06.505Z,102099.69
2022-10-05T16:57:42.199Z,102101.56
2022-10-05T17:00:38.187Z,102104.06
2022-10-05T17:03:34.742Z,102104.66
2022-10-05T17:06:28.063Z,102111.03
2022-10-05T17:09:30.801Z,102112.31
2022-10-05T17:12:22.875Z,102101.47
2022-10-05T17:15:30.767Z,102108.59
2022-10-05T17:18:19.067Z,102114.91
2022-10-05T17:20:58.606Z,102118.66
2022-10-05T17:23:44.637Z,102109.28
2022-10-05T17:26:30.842Z,102115.50
2022-10-05T17:29:02.140Z,102118.00
2022-10-05T17:31:31.961Z,102119.13
2022-10-05T17:34:17.383Z,102125.13
2022-10-05T17:36:50.162Z,102118.91
2022-10-05T17:39:54.809Z,102121.19
2022-10-05T17:42:37.069Z,102121.38
2022-10-05T17:45:12.262Z,102138.22
2022-10-05T17:47:59.628Z,102136.59
2022-10-05T17:51:02.605Z,102141.78
2022-10-05T17:53:56.346Z,102150.72
2022-10-05T17:56:24.404Z,102154.94
2022-10-05T17:58:54.834Z,102156.88
2022-10-05T18:01:41.778Z,102159.34
2022-10-05T18:04:12.301Z,102158.13
2022-10-05T18:07:00.663Z,102160.25
2022-10-05T18:09:28.520Z,102164.22
2022-10-05T18:12:39.263Z,102162.72
2022-10-05T18:15:22.820Z,102165.84
2022-10-05T18:18:32.601Z,102170.44
2022-10-05T18:21:20.906Z,102177.53
2022-10-05T18:24:01.983Z,102176.50
2022-10-05T18:26:53.049Z,102175.63
2022-10-05T18:29:57.304Z,102174.19
2022-10-05T18:32:45.777Z,102175.03
2022-10-05T18:35:23.586Z,102182.53
2022-10-05T18:38:02.448Z,102180.69
2022-10-05T18:41:09.482Z,102185.03
2022-10-05T18:43:57.441Z,102186.09
2022-10-05T18:46:46.661Z,102189.41
2022-10-05T18:49:32.394Z,102181.28
2022-10-05T18:52:09.677Z,102195.72
2022-10-05T18:54:57.224Z,102197.19
2022-10-05T18:57:24.925Z,102192.63
2022-10-05T19:00:04.947Z,102201.38
2022-10-05T19:02:44.212Z,102199.94
2022-10-05T19:05:49.715Z,102206.19
2022-10-05T19:08:27.358Z,102205.16
2022-10-05T19:11:26.916Z,102211.81
2022-10-05T19:14:16.371Z,102211.66
2022-10-05T19:17:19.182Z,102216.41
2022-10-05T19:20:25.197Z,102212.69
2022-10-05T19:23:14.980Z,102205.59
2022-10-05T19:25:55.749Z,102219.56
2022-10-05T19:28:30.796Z,102216.06
2022-10-05T19:31:32.605Z,102212.50
2022-10-05T19:34:49.203Z,102215.22
2022-10-05T19:37:57.855Z,102218.13
2022-10-05T19:40:52.718Z,102222.28
2022-10-05T19:44:01.755Z,102223.09
2022-10-05T19:47:05.537Z,102228.13
2022-10-05T19:49:40.065Z,102228.97
2022-10-05T19:52:38.541Z,102225.66
2022-10-05T19:55:24.953Z,102230.66
2022-10-05T19:58:45.241Z,102236.50
2022-10-05T20:01:37.120Z,102242.38
2022-10-05T20:04:11.589Z,102242.16
2022-10-05T20:06:48.724Z,102241.72
2022-10-05T20:09:21.514Z,102239.69
2022-10-05T20:11:57.617Z,102248.22
2022-10-05T20:14:59.205Z,102257.34
2022-10-05T20:17:46.229Z,102254.44
2022-10-05T20:20:41.062Z,102257.78
2022-10-05T20:23:28.864Z,102261.53
2022-10-05T20:26:24.390Z,102262.97
2022-10-05T20:28:52.277Z,102264.84
2022-10-05T20:31:20.554Z,102266.53
2022-10-05T20:33:48.918Z,102275.66
2022-10-05T20:36:16.666Z,102262.75
2022-10-05T20:38:44.830Z,102268.81
2022-10-05T20:41:18.835Z,102262.78
2022-10-05T20:43:48.089Z,102269.66
2022-10-05T20:46:18.537Z,102270.25
2022-10-05T20:48:52.314Z,102269.00
2022-10-05T20:51:21.487Z,102272.13
2022-10-05T20:53:52.791Z,102276.72
2022-10-05T20:56:24.403Z,102266.34
2022-10-05T20:58:53.773Z,102270.06
2022-10-05T21:01:28.679Z,102267.16
2022-10-05T21:03:59.167Z,102266.53
2022-10-05T21:06:29.969Z,102262.16
2022-10-05T21:08:57.758Z,102271.75
2022-10-05T21:11:29.319Z,102267.16
2022-10-05T21:14:04.795Z,102264.44
2022-10-05T21:16:38.572Z,102258.63
2022-10-05T21:19:10.118Z,102264.47
2022-10-05T21:21:37.790Z,102265.47
2022-10-05T21:24:06.004Z,102271.09
2022-10-05T21:26:34.388Z,102265.09
2022-10-05T21:29:02.802Z,102269.03
2022-10-05T21:31:30.884Z,102269.03
2022-10-05T21:33:58.547Z,102268.38
2022-10-05T21:36:26.481Z,102275.25
2022-10-05T21:39:00.892Z,102282.31
2022-10-05T21:41:28.709Z,102277.94
2022-10-05T21:43:56.349Z,102276.69
2022-10-05T21:46:29.582Z,102281.28
2022-10-05T21:48:57.239Z,102284.41
2022-10-05T21:51:26.234Z,102282.94
2022-10-05T21:54:13.406Z,102280.84
2022-10-05T21:56:44.648Z,102280.03
2022-10-05T21:59:15.502Z,102283.56
2022-10-05T22:01:43.058Z,102292.06
2022-10-05T22:04:10.755Z,102291.00
2022-10-05T22:06:38.878Z,102296.38
2022-10-05T22:09:07.180Z,102290.16
2022-10-05T22:11:35.021Z,102293.50
2022-10-05T22:14:05.477Z,102292.66
2022-10-05T22:16:36.981Z,102295.09
2022-10-05T22:19:07.119Z,102296.56
2022-10-05T22:21:41.997Z,102294.91
2022-10-05T22:24:12.077Z,102288.88
2022-10-05T22:26:48.021Z,102302.38
2022-10-05T22:29:22.201Z,102294.91
2022-10-05T22:31:50.258Z,102296.19
2022-10-05T22:34:18.771Z,102304.28
2022-10-05T22:36:47.830Z,102300.34
2022-10-05T22:39:17.053Z,102304.72
2022-10-05T22:41:45.048Z,102296.63
2022-10-05T22:44:13.092Z,102301.63
2022-10-05T22:46:40.799Z,102304.31
2022-10-05T22:49:08.208Z,102299.94
2022-10-05T22:51:35.873Z,102299.06
2022-10-05T22:54:03.725Z,102308.03
2022-10-05T22:56:31.135Z,102306.34
2022-10-05T22:58:58.954Z,102309.84
2022-10-05T23:01:27.645Z,102312.53
2022-10-05T23:03:57.511Z,102308.03
2022-10-05T23:06:28.547Z,102311.75
2022-10-05T23:08:56.719Z,102307.31
2022-10-05T23:11:30.622Z,102310.03
2022-10-05T23:13:58.960Z,102307.97
2022-10-05T23:16:28.756Z,102301.75
2022-10-05T23:18:56.997Z,102307.75
2022-10-05T23:21:28.024Z,102299.47
2022-10-05T23:23:55.857Z,102302.81
2022-10-05T23:26:25.482Z,102298.84
2022-10-05T23:28:53.910Z,102297.97
2022-10-05T23:31:24.304Z,102300.28
2022-10-05T23:33:53.392Z,102298.81
2022-10-05T23:36:27.204Z,102298.38
2022-10-05T23:38:54.903Z,102290.06
2022-10-05T23:41:22.937Z,102291.72
2022-10-05T23:43:50.498Z,102290.69
2022-10-05T23:46:19.014Z,102286.09
2022-10-05T23:48:46.545Z,102284.66
2022-10-05T23:51:15.856Z,102299.13
2022-10-05T23:53:43.287Z,102290.63
2022-10-05T23:56:14.854Z,102290.84
2022-10-05T23:58:42.326Z,102290.22
